createdAt,value
2022-08-23T00:01:42.770Z,94601.34
2022-08-23T00:04:13.291Z,94610.13
2022-08-23T00:06:41.835Z,94604.03
2022-08-23T00:09:09.990Z,94597.06
2022-08-23T00:11:38.935Z,94617.88
2022-08-23T00:14:14.242Z,94617.38
2022-08-23T00:16:42.081Z,94626.00
2022-08-23T00:19:13.231Z,94628.88
2022-08-23T00:21:41.170Z,94608.94
2022-08-23T00:24:09.702Z,94610.47
2022-08-23T00:26:56.361Z,94613.34
2022-08-23T00:29:27.787Z,94619.84
2022-08-23T00:31:54.834Z,94625.50
2022-08-23T00:34:22.071Z,94601.31
2022-08-23T00:36:50.104Z,94596.38
2022-08-23T00:39:18.781Z,94613.81
2022-08-23T00:41:47.354Z,94613.94
2022-08-23T00:44:39.614Z,94605.22
2022-08-23T00:47:26.479Z,94617.22
2022-08-23T00:50:01.867Z,94606.16
2022-08-23T00:52:38.642Z,94598.50
2022-08-23T00:55:06.153Z,94609.56
2022-08-23T00:57:34.750Z,94590.63
2022-08-23T01:00:01.644Z,94617.97
2022-08-23T01:02:29.133Z,94612.34
2022-08-23T01:04:59.575Z,94606.03
2022-08-23T01:07:35.971Z,94612.13
2022-08-23T01:10:14.967Z,94608.72
2022-08-23T01:12:54.360Z,94607.25
2022-08-23T01:15:26.450Z,94609.66
2022-08-23T01:18:06.024Z,94617.41
2022-08-23T01:20:41.443Z,94612.72
2022-08-23T01:23:40.519Z,94616.97
2022-08-23T01:26:08.260Z,94621.56
2022-08-23T01:28:40.889Z,94603.63
2022-08-23T01:31:12.693Z,94611.22
2022-08-23T01:33:41.502Z,94590.00
2022-08-23T01:36:16.362Z,94591.41
2022-08-23T01:38:44.155Z,94588.19
2022-08-23T01:41:11.403Z,94590.09
2022-08-23T01:43:38.278Z,94587.00
2022-08-23T01:46:11.310Z,94604.44
2022-08-23T01:48:39.219Z,94602.16
2022-08-23T01:51:07.279Z,94609.94
2022-08-23T01:53:35.302Z,94614.41
2022-08-23T01:56:02.535Z,94595.22
2022-08-23T01:58:33.447Z,94599.25
2022-08-23T02:01:02.031Z,94584.25
2022-08-23T02:03:29.351Z,94592.88
2022-08-23T02:05:57.343Z,94595.47
2022-08-23T02:08:43.991Z,94597.50
2022-08-23T02:11:15.231Z,94603.28
2022-08-23T02:13:46.434Z,94603.34
2022-08-23T02:16:23.407Z,94596.63
2022-08-23T02:18:53.228Z,94604.97
2022-08-23T02:21:20.569Z,94620.69
2022-08-23T02:23:47.722Z,94623.81
2022-08-23T02:26:15.333Z,94621.34
2022-08-23T02:28:45.130Z,94619.50
2022-08-23T02:31:12.534Z,94614.69
2022-08-23T02:33:39.682Z,94630.75
2022-08-23T02:36:06.719Z,94613.03
2022-08-23T02:38:33.981Z,94631.16
2022-08-23T02:41:01.397Z,94639.28
2022-08-23T02:43:30.006Z,94628.97
2022-08-23T02:45:56.936Z,94644.75
2022-08-23T02:48:23.723Z,94641.38
2022-08-23T02:51:01.150Z,94635.25
2022-08-23T02:53:28.362Z,94641.50
2022-08-23T02:55:55.641Z,94657.31
2022-08-23T02:58:22.682Z,94656.56
2022-08-23T03:00:49.995Z,94645.00
2022-08-23T03:03:17.869Z,94652.38
2022-08-23T03:05:44.950Z,94648.91
2022-08-23T03:08:12.121Z,94656.69
2022-08-23T03:10:48.388Z,94647.72
2022-08-23T03:13:16.307Z,94668.34
2022-08-23T03:15:45.353Z,94648.59
2022-08-23T03:18:13.481Z,94648.22
2022-08-23T03:20:41.834Z,94646.66
2022-08-23T03:23:11.047Z,94658.75
2022-08-23T03:25:39.354Z,94650.91
2022-08-23T03:28:26.327Z,94668.03
2022-08-23T03:30:53.905Z,94659.13
2022-08-23T03:33:21.277Z,94659.13
2022-08-23T03:35:49.730Z,94663.41
2022-08-23T03:38:18.180Z,94657.53
2022-08-23T03:40:45.068Z,94656.78
2022-08-23T03:43:12.149Z,94656.78
2022-08-23T03:45:38.943Z,94668.81
2022-08-23T03:48:07.223Z,94659.50
2022-08-23T03:50:35.392Z,94660.63
2022-08-23T03:53:02.505Z,94679.81
2022-08-23T03:55:30.001Z,94681.34
2022-08-23T03:58:00.730Z,94678.91
2022-08-23T04:00:28.580Z,94681.44
2022-08-23T04:02:55.618Z,94692.63
2022-08-23T04:05:24.390Z,94709.81
2022-08-23T04:08:07.883Z,94684.84
2022-08-23T04:10:35.047Z,94704.41
2022-08-23T04:13:02.301Z,94705.59
2022-08-23T04:15:29.290Z,94710.94
2022-08-23T04:17:56.046Z,94715.25
2022-08-23T04:20:25.126Z,94712.56
2022-08-23T04:22:57.507Z,94715.53
2022-08-23T04:25:33.627Z,94714.38
2022-08-23T04:28:03.615Z,94710.81
2022-08-23T04:30:31.809Z,94723.53
2022-08-23T04:32:58.926Z,94731.38
2022-08-23T04:35:30.093Z,94741.34
2022-08-23T04:37:57.062Z,94727.13
2022-08-23T04:40:42.744Z,94746.81
2022-08-23T04:43:10.030Z,94739.41
2022-08-23T04:45:41.179Z,94746.69
2022-08-23T04:48:14.458Z,94739.56
2022-08-23T04:50:45.438Z,94739.19
2022-08-23T04:53:18.902Z,94731.16
2022-08-23T04:55:55.206Z,94751.00
2022-08-23T04:58:22.645Z,94758.88
2022-08-23T05:00:52.870Z,94750.13
2022-08-23T05:03:25.145Z,94763.97
2022-08-23T05:05:55.453Z,94759.25
2022-08-23T05:08:28.067Z,94756.91
2022-08-23T05:10:54.986Z,94759.69
2022-08-23T05:13:22.099Z,94769.84
2022-08-23T05:15:51.116Z,94774.91
2022-08-23T05:18:18.481Z,94791.22
2022-08-23T05:20:46.376Z,94780.34
2022-08-23T05:23:13.233Z,94786.16
2022-08-23T05:25:53.141Z,94787.94
2022-08-23T05:28:35.317Z,94777.16
2022-08-23T05:31:32.602Z,94767.47
2022-08-23T05:34:02.882Z,94768.69
2022-08-23T05:36:48.153Z,94743.97
2022-08-23T05:39:32.880Z,94762.41
2022-08-23T05:42:14.397Z,94773.41
2022-08-23T05:44:43.340Z,94773.50
2022-08-23T05:47:15.166Z,94784.25
2022-08-23T05:50:06.165Z,94789.56
2022-08-23T05:52:36.371Z,94795.59
2022-08-23T05:55:04.195Z,94778.88
2022-08-23T05:57:51.402Z,94787.38
2022-08-23T06:00:18.224Z,94781.91
2022-08-23T06:02:52.326Z,94793.84
2022-08-23T06:05:21.579Z,94754.94
2022-08-23T06:07:49.963Z,94778.81
2022-08-23T06:10:20.790Z,94781.44
2022-08-23T06:13:10.638Z,94786.28
2022-08-23T06:15:43.457Z,94783.63
2022-08-23T06:18:13.242Z,94777.84
2022-08-23T06:20:42.151Z,94775.16
2022-08-23T06:23:13.017Z,94781.09
2022-08-23T06:25:41.685Z,94789.94
2022-08-23T06:28:14.999Z,94769.25
2022-08-23T06:30:42.381Z,94781.19
2022-08-23T06:33:27.333Z,94797.47
2022-08-23T06:36:07.379Z,94790.66
2022-08-23T06:38:54.880Z,94802.94
2022-08-23T06:42:00.780Z,94773.16
2022-08-23T06:44:30.464Z,94781.19
2022-08-23T06:47:10.978Z,94785.78
2022-08-23T06:49:38.036Z,94808.50
2022-08-23T06:52:05.758Z,94784.72
2022-08-23T06:54:53.259Z,94817.91
2022-08-23T06:57:30.279Z,94823.50
2022-08-23T07:00:22.460Z,94801.34
2022-08-23T07:03:28.216Z,94793.16
2022-08-23T07:06:13.745Z,94781.72
2022-08-23T07:08:42.082Z,94808.25
2022-08-23T07:11:09.597Z,94858.84
2022-08-23T07:13:40.080Z,94846.75
2022-08-23T07:16:07.305Z,94841.94
2022-08-23T07:18:34.217Z,94826.19
2022-08-23T07:21:03.697Z,94827.44
2022-08-23T07:23:33.268Z,94816.22
2022-08-23T07:26:06.918Z,94828.22
2022-08-23T07:28:34.747Z,94824.53
2022-08-23T07:31:12.381Z,94832.63
2022-08-23T07:33:44.548Z,94859.16
2022-08-23T07:36:22.229Z,94850.28
2022-08-23T07:38:51.524Z,94836.31
2022-08-23T07:41:20.517Z,94868.59
2022-08-23T07:43:48.153Z,94877.53
2022-08-23T07:46:15.246Z,94859.41
2022-08-23T07:48:54.101Z,94879.22
2022-08-23T07:51:29.710Z,94887.28
2022-08-23T07:53:56.771Z,94898.88
2022-08-23T07:56:24.391Z,94894.97
2022-08-23T07:59:20.401Z,94880.59
2022-08-23T08:02:05.982Z,94888.75
2022-08-23T08:04:34.480Z,94885.22
2022-08-23T08:07:18.342Z,94904.69
2022-08-23T08:09:48.887Z,94886.75
2022-08-23T08:12:17.742Z,94875.28
2022-08-23T08:14:48.450Z,94904.25
2022-08-23T08:17:24.253Z,94924.03
2022-08-23T08:20:26.804Z,94888.44
2022-08-23T08:22:58.722Z,94891.50
2022-08-23T08:25:59.677Z,94888.69
2022-08-23T08:28:27.362Z,94914.06
2022-08-23T08:30:54.364Z,94923.63
2022-08-23T08:33:21.894Z,94889.41
2022-08-23T08:35:57.574Z,94914.84
2022-08-23T08:38:30.594Z,94900.50
2022-08-23T08:41:22.229Z,94928.38
2022-08-23T08:44:14.666Z,94927.03
2022-08-23T08:46:53.397Z,94906.97
2022-08-23T08:49:41.841Z,94924.38
2022-08-23T08:52:32.822Z,94928.59
2022-08-23T08:55:33.767Z,94921.16
2022-08-23T08:58:04.550Z,94923.38
2022-08-23T09:00:37.707Z,94926.72
2022-08-23T09:03:12.249Z,94926.44
2022-08-23T09:05:44.674Z,94921.25
2022-08-23T09:08:27.153Z,94934.38
2022-08-23T09:11:22.472Z,94932.25
2022-08-23T09:14:20.007Z,94919.09
2022-08-23T09:16:57.956Z,94907.94
2022-08-23T09:19:25.373Z,94899.53
2022-08-23T09:22:01.996Z,94906.28
2022-08-23T09:24:31.024Z,94919.22
2022-08-23T09:27:04.226Z,94890.69
2022-08-23T09:29:38.182Z,94922.72
2022-08-23T09:32:25.481Z,94900.75
2022-08-23T09:34:52.430Z,94904.03
2022-08-23T09:37:23.004Z,94887.22
2022-08-23T09:40:10.809Z,94903.16
2022-08-23T09:42:39.710Z,94905.72
2022-08-23T09:45:35.585Z,94932.63
2022-08-23T09:48:06.427Z,94924.66
2022-08-23T09:50:49.485Z,94921.81
2022-08-23T09:53:23.570Z,94895.69
2022-08-23T09:55:54.995Z,94917.34
2022-08-23T09:58:38.082Z,94894.88
2022-08-23T10:01:11.669Z,94923.75
2022-08-23T10:03:39.557Z,94920.56
2022-08-23T10:06:31.936Z,94937.38
2022-08-23T10:09:05.711Z,94926.13
2022-08-23T10:11:46.322Z,94942.50
2022-08-23T10:14:17.887Z,94903.28
2022-08-23T10:16:46.040Z,94936.91
2022-08-23T10:19:36.729Z,94939.25
2022-08-23T10:22:26.814Z,94927.91
2022-08-23T10:25:12.539Z,94942.16
2022-08-23T10:28:07.216Z,94911.47
2022-08-23T10:30:40.975Z,94900.53
2022-08-23T10:33:32.443Z,94900.16
2022-08-23T10:36:22.254Z,94909.38
2022-08-23T10:39:03.685Z,94903.13
2022-08-23T10:41:52.798Z,94881.28
2022-08-23T10:44:41.234Z,94902.09
2022-08-23T10:47:28.406Z,94909.03
2022-08-23T10:49:58.574Z,94899.38
2022-08-23T10:52:40.986Z,94896.91
2022-08-23T10:55:24.608Z,94875.84
2022-08-23T10:57:53.819Z,94911.22
2022-08-23T11:00:25.954Z,94914.41
2022-08-23T11:03:08.935Z,94931.63
2022-08-23T11:05:39.143Z,94922.84
2022-08-23T11:08:47.524Z,94907.09
2022-08-23T11:11:43.578Z,94904.63
2022-08-23T11:14:32.767Z,94877.53
2022-08-23T11:17:07.794Z,94902.31
2022-08-23T11:19:57.375Z,94886.31
2022-08-23T11:22:26.375Z,94906.84
2022-08-23T11:25:01.752Z,94902.41
2022-08-23T11:27:40.524Z,94868.72
2022-08-23T11:30:38.639Z,94895.72
2022-08-23T11:33:15.415Z,94908.47
2022-08-23T11:35:52.228Z,94914.00
2022-08-23T11:38:47.961Z,94900.19
2022-08-23T11:41:19.031Z,94892.47
2022-08-23T11:44:06.339Z,94883.19
2022-08-23T11:46:36.283Z,94899.34
2022-08-23T11:49:28.656Z,94906.25
2022-08-23T11:52:18.822Z,94907.31
2022-08-23T11:54:54.890Z,94888.28
2022-08-23T11:57:45.907Z,94889.78
2022-08-23T12:00:29.303Z,94902.47
2022-08-23T12:03:33.719Z,94897.69
2022-08-23T12:06:12.715Z,94910.69
2022-08-23T12:08:51.278Z,94921.03
2022-08-23T12:11:19.379Z,94898.50
2022-08-23T12:13:57.760Z,94909.19
2022-08-23T12:16:24.544Z,94909.88
2022-08-23T12:18:55.493Z,94900.22
2022-08-23T12:21:41.497Z,94888.78
2022-08-23T12:24:23.380Z,94889.22
2022-08-23T12:27:20.355Z,94909.00
2022-08-23T12:30:09.667Z,94884.59
2022-08-23T12:33:04.186Z,94915.09
2022-08-23T12:35:34.445Z,94901.97
2022-08-23T12:38:19.849Z,94911.06
2022-08-23T12:40:51.610Z,94904.91
2022-08-23T12:43:28.323Z,94883.78
2022-08-23T12:45:58.065Z,94888.28
2022-08-23T12:48:31.508Z,94886.56
2022-08-23T12:51:01.582Z,94883.94
2022-08-23T12:53:44.753Z,94898.31
2022-08-23T12:56:38.517Z,94874.44
2022-08-23T12:59:07.450Z,94861.75
2022-08-23T13:01:37.553Z,94918.78
2022-08-23T13:04:14.019Z,94890.59
2022-08-23T13:06:43.195Z,94871.63
2022-08-23T13:09:19.166Z,94865.50
2022-08-23T13:11:47.480Z,94876.56
2022-08-23T13:14:33.269Z,94879.88
2022-08-23T13:17:21.536Z,94876.06
2022-08-23T13:19:51.930Z,94870.31
2022-08-23T13:22:19.446Z,94884.38
2022-08-23T13:25:24.602Z,94865.94
2022-08-23T13:27:45.367Z,94865.31
2022-08-23T13:30:17.417Z,94874.84
2022-08-23T13:33:12.134Z,94862.72
2022-08-23T13:35:40.370Z,94866.34
2022-08-23T13:38:07.650Z,94851.06
2022-08-23T13:40:52.762Z,94873.19
2022-08-23T13:43:23.689Z,94880.09
2022-08-23T13:45:54.734Z,94887.63
2022-08-23T13:48:25.530Z,94874.22
2022-08-23T13:50:52.466Z,94877.47
2022-08-23T13:53:20.485Z,94861.19
2022-08-23T13:55:48.865Z,94861.56
2022-08-23T13:58:26.650Z,94866.75
2022-08-23T14:00:55.356Z,94868.56
2022-08-23T14:03:24.156Z,94852.84
2022-08-23T14:05:51.577Z,94875.50
2022-08-23T14:08:19.093Z,94873.59
2022-08-23T14:10:46.670Z,94874.72
2022-08-23T14:13:15.698Z,94864.19
2022-08-23T14:16:33.033Z,94847.47
2022-08-23T14:18:32.431Z,94862.94
2022-08-23T14:20:59.518Z,94878.97
2022-08-23T14:23:26.857Z,94854.16
2022-08-23T14:25:56.650Z,94875.84
2022-08-23T14:28:30.026Z,94868.44
2022-08-23T14:30:57.737Z,94863.16
2022-08-23T14:33:25.009Z,94891.94
2022-08-23T14:35:52.486Z,94877.97
2022-08-23T14:38:19.582Z,94886.28
2022-08-23T14:41:08.952Z,94866.91
2022-08-23T14:43:36.222Z,94868.59
2022-08-23T14:46:03.210Z,94873.75
2022-08-23T14:48:30.007Z,94879.94
2022-08-23T14:50:57.830Z,94878.91
2022-08-23T14:53:28.900Z,94882.00
2022-08-23T14:56:19.931Z,94870.31
2022-08-23T14:58:43.013Z,94883.84
2022-08-23T15:01:11.321Z,94871.47
2022-08-23T15:03:41.807Z,94871.78
2022-08-23T15:06:13.861Z,94839.53
2022-08-23T15:08:40.865Z,94844.25
2022-08-23T15:13:59.670Z,94882.97
2022-08-23T15:16:26.918Z,94855.41
2022-08-23T15:18:55.293Z,94854.72
2022-08-23T15:21:22.425Z,94857.44
2022-08-23T15:23:49.669Z,94857.13
2022-08-23T15:26:21.996Z,94858.75
2022-08-23T15:28:49.188Z,94845.47
2022-08-23T15:31:17.341Z,94875.19
2022-08-23T15:33:44.701Z,94846.16
2022-08-23T15:36:13.611Z,94853.88
2022-08-23T15:38:44.863Z,94861.56
2022-08-23T15:41:11.649Z,94853.56
2022-08-23T15:43:39.850Z,94844.78
2022-08-23T15:46:08.817Z,94877.91
2022-08-23T15:48:43.203Z,94871.16
2022-08-23T15:51:11.106Z,94865.78
2022-08-23T15:53:40.090Z,94855.25
2022-08-23T15:56:14.879Z,94844.34
2022-08-23T15:58:42.331Z,94856.72
2022-08-23T16:01:09.810Z,94849.63
2022-08-23T16:03:38.262Z,94846.59
2022-08-23T16:06:06.513Z,94854.41
2022-08-23T16:08:37.311Z,94848.94
2022-08-23T16:11:10.531Z,94846.28
2022-08-23T16:13:40.844Z,94853.38
2022-08-23T16:16:24.287Z,94848.06
2022-08-23T16:18:53.811Z,94841.00
2022-08-23T16:21:26.362Z,94839.13
2022-08-23T16:23:54.770Z,94830.50
2022-08-23T16:26:34.741Z,94842.03
2022-08-23T16:29:05.417Z,94844.28
2022-08-23T16:31:37.423Z,94852.63
2022-08-23T16:34:09.036Z,94840.53
2022-08-23T16:36:36.474Z,94809.28
2022-08-23T16:39:05.395Z,94828.78
2022-08-23T16:41:32.446Z,94826.81
2022-08-23T16:43:59.315Z,94826.59
2022-08-23T16:46:26.754Z,94815.53
2022-08-23T16:48:53.482Z,94815.03
2022-08-23T16:51:21.922Z,94804.50
2022-08-23T16:54:02.128Z,94817.34
2022-08-23T16:56:30.875Z,94829.13
2022-08-23T16:58:57.878Z,94813.00
2022-08-23T17:01:24.788Z,94818.41
2022-08-23T17:03:51.953Z,94811.00
2022-08-23T17:06:19.277Z,94816.19
2022-08-23T17:08:46.368Z,94816.09
2022-08-23T17:11:17.229Z,94818.16
2022-08-23T17:13:44.517Z,94814.13
2022-08-23T17:16:11.761Z,94805.16
2022-08-23T17:18:39.078Z,94791.53
2022-08-23T17:21:07.334Z,94782.44
2022-08-23T17:23:34.245Z,94793.53
2022-08-23T17:26:07.284Z,94807.78
2022-08-23T17:28:34.287Z,94789.97
2022-08-23T17:31:01.389Z,94781.31
2022-08-23T17:33:28.253Z,94789.75
2022-08-23T17:35:55.062Z,94792.41
2022-08-23T17:38:22.069Z,94799.63
2022-08-23T17:40:49.133Z,94795.88
2022-08-23T17:43:15.929Z,94775.63
2022-08-23T17:45:46.425Z,94777.59
2022-08-23T17:48:14.790Z,94794.31
2022-08-23T17:50:43.632Z,94787.50
2022-08-23T17:53:12.164Z,94791.34
2022-08-23T17:55:40.762Z,94791.47
2022-08-23T17:58:09.941Z,94787.69
2022-08-23T18:00:39.571Z,94793.66
2022-08-23T18:03:07.385Z,94789.78
2022-08-23T18:05:37.474Z,94801.91
2022-08-23T18:08:04.718Z,94805.88
2022-08-23T18:10:31.593Z,94802.41
2022-08-23T18:12:58.887Z,94804.44
2022-08-23T18:15:28.850Z,94811.56
2022-08-23T18:17:58.071Z,94802.34
2022-08-23T18:20:26.797Z,94813.72
2022-08-23T18:22:55.163Z,94816.38
2022-08-23T18:25:22.224Z,94826.75
2022-08-23T18:28:08.258Z,94822.31
2022-08-23T18:30:55.779Z,94827.72
2022-08-23T18:33:25.412Z,94836.19
2022-08-23T18:35:59.835Z,94837.56
2022-08-23T18:38:26.766Z,94841.66
2022-08-23T18:40:53.570Z,94849.16
2022-08-23T18:43:26.245Z,94859.78
2022-08-23T18:46:00.250Z,94847.94
2022-08-23T18:48:27.131Z,94842.66
2022-08-23T18:50:53.937Z,94855.41
2022-08-23T18:53:21.413Z,94864.28
2022-08-23T18:55:50.058Z,94866.66
2022-08-23T18:58:18.054Z,94858.13
2022-08-23T19:00:45.809Z,94856.88
2022-08-23T19:03:16.536Z,94859.72
2022-08-23T19:05:43.550Z,94870.44
2022-08-23T19:08:12.178Z,94873.63
2022-08-23T19:10:39.933Z,94875.28
2022-08-23T19:13:09.059Z,94877.47
2022-08-23T19:15:38.185Z,94873.97
2022-08-23T19:18:05.145Z,94879.00
2022-08-23T19:20:32.877Z,94872.09
2022-08-23T19:23:00.305Z,94871.69
2022-08-23T19:25:27.831Z,94875.63
2022-08-23T19:27:58.421Z,94886.09
2022-08-23T19:30:28.434Z,94882.28
2022-08-23T19:32:56.648Z,94887.88
2022-08-23T19:35:23.652Z,94876.31
2022-08-23T19:37:50.617Z,94891.84
2022-08-23T19:40:18.019Z,94892.00
2022-08-23T19:42:44.921Z,94875.97
2022-08-23T19:45:12.539Z,94899.91
2022-08-23T19:47:40.378Z,94902.00
2022-08-23T19:50:09.688Z,94899.31
2022-08-23T19:52:37.518Z,94900.41
2022-08-23T19:55:07.382Z,94905.75
2022-08-23T19:57:35.571Z,94889.91
2022-08-23T20:00:09.611Z,94900.19
2022-08-23T20:02:36.566Z,94916.44
2022-08-23T20:05:05.381Z,94910.56
2022-08-23T20:07:32.619Z,94907.66
2022-08-23T20:09:59.610Z,94895.47
2022-08-23T20:12:28.875Z,94897.63
2022-08-23T20:14:56.063Z,94909.16
2022-08-23T20:17:23.261Z,94924.78
2022-08-23T20:19:50.463Z,94910.16
2022-08-23T20:22:35.567Z,94920.69
2022-08-23T20:25:02.531Z,94917.63
2022-08-23T20:27:31.081Z,94916.63
2022-08-23T20:30:02.261Z,94924.69
2022-08-23T20:32:29.925Z,94918.16
2022-08-23T20:34:58.346Z,94918.81
2022-08-23T20:37:25.504Z,94931.25
2022-08-23T20:39:52.545Z,94930.25
2022-08-23T20:42:19.387Z,94938.13
2022-08-23T20:44:46.170Z,94945.44
2022-08-23T20:47:13.169Z,94938.09
2022-08-23T20:49:40.032Z,94935.47
2022-08-23T20:52:08.346Z,94943.69
2022-08-23T20:54:35.159Z,94940.78
2022-08-23T20:57:02.390Z,94936.56
2022-08-23T20:59:29.161Z,94938.47
2022-08-23T21:01:56.045Z,94920.53
2022-08-23T21:04:22.878Z,94919.72
2022-08-23T21:06:58.187Z,94919.16
2022-08-23T21:09:29.443Z,94930.13
2022-08-23T21:11:56.989Z,94901.38
2022-08-23T21:14:24.372Z,94920.28
2022-08-23T21:16:51.258Z,94929.72
2022-08-23T21:19:18.936Z,94927.09
2022-08-23T21:21:45.682Z,94925.72
2022-08-23T21:24:13.214Z,94923.63
2022-08-23T21:26:41.416Z,94920.66
2022-08-23T21:29:10.000Z,94935.94
2022-08-23T21:31:38.245Z,94932.56
2022-08-23T21:34:05.689Z,94930.84
2022-08-23T21:36:32.662Z,94911.47
2022-08-23T21:38:59.430Z,94923.84
2022-08-23T21:41:42.465Z,94915.66
2022-08-23T21:44:13.916Z,94926.63
2022-08-23T21:46:41.623Z,94910.84
2022-08-23T21:49:08.839Z,94908.00
2022-08-23T21:51:39.122Z,94915.91
2022-08-23T21:54:09.201Z,94906.75
2022-08-23T21:56:37.201Z,94906.09
2022-08-23T21:59:06.729Z,94897.16
2022-08-23T22:01:36.963Z,94891.94
2022-08-23T22:04:06.370Z,94898.22
2022-08-23T22:06:35.058Z,94918.22
2022-08-23T22:09:04.407Z,94922.34
2022-08-23T22:11:31.224Z,94913.28
2022-08-23T22:13:58.146Z,94918.00
2022-08-23T22:16:25.046Z,94929.13
2022-08-23T22:18:51.885Z,94923.25
2022-08-23T22:21:18.648Z,94918.09
2022-08-23T22:23:45.519Z,94912.03
2022-08-23T22:26:14.032Z,94911.88
2022-08-23T22:28:44.656Z,94888.75
2022-08-23T22:31:13.676Z,94905.59
2022-08-23T22:33:42.219Z,94919.53
2022-08-23T22:36:14.098Z,94900.06
2022-08-23T22:38:40.985Z,94911.72
2022-08-23T22:41:07.794Z,94912.06
2022-08-23T22:43:34.900Z,94914.81
2022-08-23T22:46:03.621Z,94900.56
2022-08-23T22:48:33.232Z,94900.50
2022-08-23T22:51:20.611Z,94911.84
2022-08-23T22:53:50.143Z,94917.94
2022-08-23T22:56:20.435Z,94919.16
2022-08-23T22:58:47.840Z,94913.59
2022-08-23T23:01:28.742Z,94922.53
2022-08-23T23:03:58.233Z,94907.72
2022-08-23T23:06:26.592Z,94897.00
2022-08-23T23:08:53.939Z,94904.81
2022-08-23T23:11:24.967Z,94909.53
2022-08-23T23:13:52.782Z,94909.84
2022-08-23T23:16:23.182Z,94918.34
2022-08-23T23:19:09.024Z,94907.91
2022-08-23T23:21:38.886Z,94901.69
2022-08-23T23:24:06.302Z,94907.53
2022-08-23T23:26:33.651Z,94908.22
2022-08-23T23:29:00.759Z,94909.44
2022-08-23T23:31:27.587Z,94922.97
2022-08-23T23:33:54.358Z,94912.97
2022-08-23T23:36:21.131Z,94907.44
2022-08-23T23:38:48.650Z,94916.34
2022-08-23T23:41:15.505Z,94913.31
2022-08-23T23:43:42.478Z,94897.75
2022-08-23T23:46:14.184Z,94902.50
2022-08-23T23:48:43.084Z,94886.06
2022-08-23T23:51:16.767Z,94895.91
2022-08-23T23:53:43.867Z,94897.44
2022-08-23T23:56:13.415Z,94901.34
2022-08-23T23:58:40.564Z,94901.34
